Hebe — A8OH7 — position and weather

sailwx.info

Track history (hours):
 
Tides and Currents Weather Stations Pressure Air Temp Water Temp Dewpoint Dewpoint Depression Visibility Wind Speed Wind Dir Waves Ship Positions

Hebe

Last reported at 2014-Jul-15 21:19 UTC. Time now 2014-Jul-30 09:11 UTC.
Position N 35°19' W 011°48'.
Warning: this ship's position is 14 days out of date.

Length 220 m; draft 12.1 m.

Type: Ship. MMSI: 636091480.

Date/timePositionNaut miles runAvg speedWind from/ knotsBaromVisibWave heightAir tempDewpointWater temp
2014-Jul-15 21:19N 35°19' W 011°48'8416.9
2014-Jul-15 16:21N 36°36' W 011°08'4716.8
2014-Jul-15 13:32N 37°19' W 010°45'1716.6
2014-Jul-15 12:33N 37°35' W 010°37'1616.4
2014-Jul-15 11:33N 37°50' W 010°29'1616.5
2014-Jul-15 10:33N 38°05' W 010°21'2416.7
2014-Jul-15 09:08N 38°27' W 010°09'1516.7
2014-Jul-15 08:13N 38°42' W 010°06'1217.5
2014-Jul-15 07:32N 38°54' W 010°07'76915.3
2014-Jul-13 05:18N 50°11' W 001°37'1215.4
2014-Jul-13 04:31N 50°07' W 001°20'3918.1
2014-Jul-13 02:21N 49°42' W 000°33'1417.6
2014-Jul-13 01:33N 49°33' W 000°16'1414.0
2014-Jul-13 00:33N 49°29' E 000°05'3 3.0
2014-Jul-12 23:33N 49°28' E 000°09'0 0.0
2014-Jul-12 22:33N 49°28' E 000°09'0 0.0
2014-Jul-12 21:32N 49°28' E 000°09'0 0.0
2014-Jul-12 20:32N 49°28' E 000°09'0 0.0
2014-Jul-12 19:31N 49°28' E 000°09'0 0.0
2014-Jul-12 18:31N 49°28' E 000°09'0 0.0
2014-Jul-12 17:33N 49°28' E 000°09'0 0.0
2014-Jul-12 16:33N 49°28' E 000°09'0 0.0
2014-Jul-12 15:29N 49°28' E 000°09'0 0.0
2014-Jul-12 14:32N 49°28' E 000°09'0 0.0
2014-Jul-12 13:32N 49°28' E 000°09'0 0.0
2014-Jul-12 12:31N 49°28' E 000°09'0 0.0
2014-Jul-12 11:31N 49°28' E 000°09'1 0.9
2014-Jul-12 10:34N 49°28' E 000°07'1211.6
2014-Jul-12 09:33N 49°32' W 000°09'1212.2
2014-Jul-12 08:33N 49°44' W 000°10'4613.3
2014-Jul-12 05:05N 50°30' E 000°04'815.1
2014-Jul-12 04:33N 50°32' E 000°16'1515.0
2014-Jul-12 03:33N 50°37' E 000°39'1817.5
2014-Jul-12 02:33N 50°49' E 000°58'1716.9
2014-Jul-12 01:32N 51°00' E 001°19'1515.3
2014-Jul-12 00:33N 51°10' E 001°38'1514.7
2014-Jul-11 23:34N 51°22' E 001°50'1515.1
2014-Jul-11 22:33N 51°37' E 001°45'1514.8
2014-Jul-11 21:33N 51°51' E 001°38'1211.8
2014-Jul-11 20:33N 51°55' E 001°20'2 2.4
2014-Jul-11 19:34N 51°57' E 001°18'0 0.0
2014-Jul-11 18:33N 51°57' E 001°18'0 0.0
2014-Jul-11 17:33N 51°57' E 001°18'0 0.0
2014-Jul-11 16:32N 51°57' E 001°18'0 0.0
2014-Jul-11 15:32N 51°57' E 001°18'0 0.0
2014-Jul-11 14:31N 51°57' E 001°18'0 0.0
2014-Jul-11 13:31N 51°57' E 001°18'0 0.0
2014-Jul-11 12:33N 51°57' E 001°18'0 0.0
2014-Jul-11 11:33N 51°57' E 001°18'0 0.0
2014-Jul-11 10:33N 51°57' E 001°18'0 0.0
2014-Jul-11 09:32N 51°57' E 001°18'0 0.0
2014-Jul-11 08:32N 51°57' E 001°18'0 0.0
2014-Jul-11 07:31N 51°57' E 001°18'0 0.0
2014-Jul-11 06:31N 51°57' E 001°18'0 0.0
2014-Jul-11 05:33N 51°57' E 001°18'0 0.0
2014-Jul-11 04:33N 51°57' E 001°18'1 0.7
2014-Jul-11 03:33N 51°57' E 001°18'5 5.4
2014-Jul-11 02:33N 51°56' E 001°27'9 9.1
2014-Jul-11 01:33N 51°52' E 001°40'4 3.8
2014-Jul-11 00:33N 51°56' E 001°42'0 0.0
2014-Jul-10 23:32N 51°56' E 001°42'0 0.1
2014-Jul-10 22:32N 51°55' E 001°42'0 0.0
2014-Jul-10 21:31N 51°55' E 001°42'0 0.0
2014-Jul-10 20:31N 51°55' E 001°42'0 0.0
2014-Jul-10 19:33N 51°55' E 001°42'0 0.0
2014-Jul-10 18:33N 51°55' E 001°42'0 0.0
2014-Jul-10 17:26N 51°55' E 001°42'0 0.0
2014-Jul-10 16:32N 51°55' E 001°42'0 0.1
2014-Jul-10 15:33N 51°56' E 001°42'1110.9
2014-Jul-10 14:33N 51°45' E 001°48'1615.6
2014-Jul-10 13:33N 51°30' E 001°54'1515.4
2014-Jul-10 12:33N 51°22' E 002°15'1515.4
2014-Jul-10 11:33N 51°23' E 002°39'1414.3
2014-Jul-10 10:32N 51°25' E 003°03'1414.4
2014-Jul-10 09:33N 51°25' E 003°25'1110.8
2014-Jul-10 08:34N 51°24' E 003°43'10 9.7
2014-Jul-10 07:33N 51°26' E 003°58'9 9.3
2014-Jul-10 06:33N 51°23' E 004°13'4 3.9
2014-Jul-10 05:33N 51°21' E 004°17'2 1.8
2014-Jul-10 04:33N 51°19' E 004°19'1 0.8
2014-Jul-10 03:33N 51°20' E 004°20'0 0.0
2014-Jul-10 02:33N 51°20' E 004°20'0 0.0
2014-Jul-10 01:33N 51°20' E 004°20'0 0.0
2014-Jul-10 00:33N 51°20' E 004°20'0 0.0
2014-Jul-09 23:33N 51°20' E 004°20'0 0.0
2014-Jul-09 22:33N 51°20' E 004°20'0 0.0
2014-Jul-09 21:33N 51°20' E 004°20'0 0.0
2014-Jul-09 20:33N 51°20' E 004°20'0 0.0
2014-Jul-09 19:33N 51°20' E 004°20'0 0.0
2014-Jul-09 18:33N 51°20' E 004°20'0 0.0
2014-Jul-09 17:33N 51°20' E 004°20'0 0.0
2014-Jul-09 16:33N 51°20' E 004°20'0 0.0
2014-Jul-09 15:33N 51°20' E 004°20'0 0.0
2014-Jul-09 14:33N 51°20' E 004°20'0 0.0
2014-Jul-09 12:33N 51°20' E 004°20'0 0.0
2014-Jul-09 11:33N 51°20' E 004°20'0 0.0
2014-Jul-09 10:33N 51°20' E 004°20'0 0.0
2014-Jul-09 09:33N 51°20' E 004°20'0 0.0
2014-Jul-09 08:33N 51°20' E 004°20'0 0.0
2014-Jul-09 07:33N 51°20' E 004°20'0 0.0
2014-Jul-09 06:33N 51°20' E 004°20'0 0.0
2014-Jul-09 05:33N 51°20' E 004°20'0 0.0
2014-Jul-09 04:33N 51°20' E 004°20'0 0.0
2014-Jul-09 03:33N 51°20' E 004°20'0 0.0
2014-Jul-09 02:33N 51°20' E 004°20'0 0.0
2014-Jul-09 01:33N 51°20' E 004°20'0 0.0
2014-Jul-09 00:33N 51°20' E 004°20'0 0.0
2014-Jul-08 23:34N 51°20' E 004°20'0 0.0
2014-Jul-08 22:33N 51°20' E 004°20'2 2.3
2014-Jul-08 21:34N 51°21' E 004°17'1 0.7
2014-Jul-08 20:34N 51°21' E 004°16'8 8.1
2014-Jul-08 19:34N 51°22' E 004°03'8 7.9
2014-Jul-08 18:33N 51°21' E 003°51'1111.3
2014-Jul-08 17:33N 51°25' E 003°35'1514.9
2014-Jul-08 16:33N 51°24' E 003°11'10 9.5
2014-Jul-08 15:32N 51°34' E 003°09'1313.6
2014-Jul-08 14:33N 51°47' E 003°13'4 3.8
2014-Jul-08 13:33N 51°51' E 003°15'5 4.7
2014-Jul-08 12:33N 51°55' E 003°18'6 5.8
2014-Jul-08 11:29N 52°00' E 003°23'15 8.0
2014-Jul-08 09:33N 52°15' E 003°32'8 8.2
2014-Jul-08 08:32N 52°23' E 003°35'11 9.0
2014-Jul-08 07:19N 52°34' E 003°37'1810.2
2014-Jul-08 05:33N 52°50' E 003°50'2512.0
2014-Jul-08 03:29N 53°08' E 004°19'1210.8
2014-Jul-08 02:25N 53°17' E 004°30'910.7
2014-Jul-08 01:34N 53°26' E 004°35'1110.6
2014-Jul-08 00:33N 53°36' E 004°39'1110.8
2014-Jul-07 23:33N 53°46' E 004°46'1111.3
2014-Jul-07 22:33N 53°57' E 004°53'1211.6
2014-Jul-07 21:33N 54°08' E 004°59'1211.6
2014-Jul-07 20:32N 54°19' E 005°05'1411.6
2014-Jul-07 19:21N 54°32' E 005°14'911.6
2014-Jul-07 18:33N 54°41' E 005°19'1211.6
2014-Jul-07 17:33N 54°52' E 005°26'23313.4
2014-Jul-07 00:11N 57°48' E 009°59'1015.1
2014-Jul-06 23:33N 57°48' E 010°17'1514.7
2014-Jul-06 22:33N 57°48' E 010°45'1615.9
2014-Jul-06 21:34N 57°38' E 011°08'1615.8
2014-Jul-06 20:34N 57°26' E 011°27'1615.9
2014-Jul-06 19:33N 57°11' E 011°37'1616.4
2014-Jul-06 18:34N 56°55' E 011°47'1313.0
2014-Jul-06 17:33N 56°42' E 011°47'12714.0
2014-Jul-06 08:31N 54°40' E 010°50'1515.8
2014-Jul-06 07:33N 54°35' E 011°15'1616.3
2014-Jul-06 06:33N 54°28' E 011°40'1615.8
2014-Jul-06 05:33N 54°26' E 012°07'1414.4
2014-Jul-06 04:33N 54°37' E 012°21'1615.8
2014-Jul-06 03:33N 54°46' E 012°44'1615.6
2014-Jul-06 02:33N 54°53' E 013°08'1615.5
2014-Jul-06 01:33N 54°58' E 013°34'1615.7
2014-Jul-06 00:33N 55°03' E 013°60'1615.8
2014-Jul-05 23:33N 55°15' E 014°19'1615.6
2014-Jul-05 22:33N 55°26' E 014°37'1515.5
2014-Jul-05 21:33N 55°32' E 015°02'  
Track history (hours):
 
Tides and Currents Weather Stations Pressure Air Temp Water Temp Dewpoint Dewpoint Depression Visibility Wind Speed Wind Dir Waves Ship Positions

Hebe

Last reported at 2014-Jul-15 21:19 UTC. Time now 2014-Jul-30 09:11 UTC.
Position N 35°19' W 011°48'.
Warning: this ship's position is 14 days out of date.

Length 220 m; draft 12.1 m.

Type: Ship. MMSI: 636091480.

Date/timePositionNaut miles runAvg speedWind from/ knotsBaromVisibWave heightAir tempDewpointWater temp
2014-Jul-15 21:19N 35°19' W 011°48'8416.9
2014-Jul-15 16:21N 36°36' W 011°08'4716.8
2014-Jul-15 13:32N 37°19' W 010°45'1716.6
2014-Jul-15 12:33N 37°35' W 010°37'1616.4
2014-Jul-15 11:33N 37°50' W 010°29'1616.5
2014-Jul-15 10:33N 38°05' W 010°21'2416.7
2014-Jul-15 09:08N 38°27' W 010°09'1516.7
2014-Jul-15 08:13N 38°42' W 010°06'1217.5
2014-Jul-15 07:32N 38°54' W 010°07'76915.3
2014-Jul-13 05:18N 50°11' W 001°37'1215.4
2014-Jul-13 04:31N 50°07' W 001°20'3918.1
2014-Jul-13 02:21N 49°42' W 000°33'1417.6
2014-Jul-13 01:33N 49°33' W 000°16'1414.0
2014-Jul-13 00:33N 49°29' E 000°05'3 3.0
2014-Jul-12 23:33N 49°28' E 000°09'0 0.0
2014-Jul-12 22:33N 49°28' E 000°09'0 0.0
2014-Jul-12 21:32N 49°28' E 000°09'0 0.0
2014-Jul-12 20:32N 49°28' E 000°09'0 0.0
2014-Jul-12 19:31N 49°28' E 000°09'0 0.0
2014-Jul-12 18:31N 49°28' E 000°09'0 0.0
2014-Jul-12 17:33N 49°28' E 000°09'0 0.0
2014-Jul-12 16:33N 49°28' E 000°09'0 0.0
2014-Jul-12 15:29N 49°28' E 000°09'0 0.0
2014-Jul-12 14:32N 49°28' E 000°09'0 0.0
2014-Jul-12 13:32N 49°28' E 000°09'0 0.0
2014-Jul-12 12:31N 49°28' E 000°09'0 0.0
2014-Jul-12 11:31N 49°28' E 000°09'1 0.9
2014-Jul-12 10:34N 49°28' E 000°07'1211.6
2014-Jul-12 09:33N 49°32' W 000°09'1212.2
2014-Jul-12 08:33N 49°44' W 000°10'4613.3
2014-Jul-12 05:05N 50°30' E 000°04'815.1
2014-Jul-12 04:33N 50°32' E 000°16'1515.0
2014-Jul-12 03:33N 50°37' E 000°39'1817.5
2014-Jul-12 02:33N 50°49' E 000°58'1716.9
2014-Jul-12 01:32N 51°00' E 001°19'1515.3
2014-Jul-12 00:33N 51°10' E 001°38'1514.7
2014-Jul-11 23:34N 51°22' E 001°50'1515.1
2014-Jul-11 22:33N 51°37' E 001°45'1514.8
2014-Jul-11 21:33N 51°51' E 001°38'1211.8
2014-Jul-11 20:33N 51°55' E 001°20'2 2.4
2014-Jul-11 19:34N 51°57' E 001°18'0 0.0
2014-Jul-11 18:33N 51°57' E 001°18'0 0.0
2014-Jul-11 17:33N 51°57' E 001°18'0 0.0
2014-Jul-11 16:32N 51°57' E 001°18'0 0.0
2014-Jul-11 15:32N 51°57' E 001°18'0 0.0
2014-Jul-11 14:31N 51°57' E 001°18'0 0.0
2014-Jul-11 13:31N 51°57' E 001°18'0 0.0
2014-Jul-11 12:33N 51°57' E 001°18'0 0.0
2014-Jul-11 11:33N 51°57' E 001°18'0 0.0
2014-Jul-11 10:33N 51°57' E 001°18'0 0.0
2014-Jul-11 09:32N 51°57' E 001°18'0 0.0
2014-Jul-11 08:32N 51°57' E 001°18'0 0.0
2014-Jul-11 07:31N 51°57' E 001°18'0 0.0
2014-Jul-11 06:31N 51°57' E 001°18'0 0.0
2014-Jul-11 05:33N 51°57' E 001°18'0 0.0
2014-Jul-11 04:33N 51°57' E 001°18'1 0.7
2014-Jul-11 03:33N 51°57' E 001°18'5 5.4
2014-Jul-11 02:33N 51°56' E 001°27'9 9.1
2014-Jul-11 01:33N 51°52' E 001°40'4 3.8
2014-Jul-11 00:33N 51°56' E 001°42'0 0.0
2014-Jul-10 23:32N 51°56' E 001°42'0 0.1
2014-Jul-10 22:32N 51°55' E 001°42'0 0.0
2014-Jul-10 21:31N 51°55' E 001°42'0 0.0
2014-Jul-10 20:31N 51°55' E 001°42'0 0.0
2014-Jul-10 19:33N 51°55' E 001°42'0 0.0
2014-Jul-10 18:33N 51°55' E 001°42'0 0.0
2014-Jul-10 17:26N 51°55' E 001°42'0 0.0
2014-Jul-10 16:32N 51°55' E 001°42'0 0.1
2014-Jul-10 15:33N 51°56' E 001°42'1110.9
2014-Jul-10 14:33N 51°45' E 001°48'1615.6
2014-Jul-10 13:33N 51°30' E 001°54'1515.4
2014-Jul-10 12:33N 51°22' E 002°15'1515.4
2014-Jul-10 11:33N 51°23' E 002°39'1414.3
2014-Jul-10 10:32N 51°25' E 003°03'1414.4
2014-Jul-10 09:33N 51°25' E 003°25'1110.8
2014-Jul-10 08:34N 51°24' E 003°43'10 9.7
2014-Jul-10 07:33N 51°26' E 003°58'9 9.3
2014-Jul-10 06:33N 51°23' E 004°13'4 3.9
2014-Jul-10 05:33N 51°21' E 004°17'2 1.8
2014-Jul-10 04:33N 51°19' E 004°19'1 0.8
2014-Jul-10 03:33N 51°20' E 004°20'0 0.0
2014-Jul-10 02:33N 51°20' E 004°20'0 0.0
2014-Jul-10 01:33N 51°20' E 004°20'0 0.0
2014-Jul-10 00:33N 51°20' E 004°20'0 0.0
2014-Jul-09 23:33N 51°20' E 004°20'0 0.0
2014-Jul-09 22:33N 51°20' E 004°20'0 0.0
2014-Jul-09 21:33N 51°20' E 004°20'0 0.0
2014-Jul-09 20:33N 51°20' E 004°20'0 0.0
2014-Jul-09 19:33N 51°20' E 004°20'0 0.0
2014-Jul-09 18:33N 51°20' E 004°20'0 0.0
2014-Jul-09 17:33N 51°20' E 004°20'0 0.0
2014-Jul-09 16:33N 51°20' E 004°20'0 0.0
2014-Jul-09 15:33N 51°20' E 004°20'0 0.0
2014-Jul-09 14:33N 51°20' E 004°20'0 0.0
2014-Jul-09 12:33N 51°20' E 004°20'0 0.0
2014-Jul-09 11:33N 51°20' E 004°20'0 0.0
2014-Jul-09 10:33N 51°20' E 004°20'0 0.0
2014-Jul-09 09:33N 51°20' E 004°20'0 0.0
2014-Jul-09 08:33N 51°20' E 004°20'0 0.0
2014-Jul-09 07:33N 51°20' E 004°20'0 0.0
2014-Jul-09 06:33N 51°20' E 004°20'0 0.0
2014-Jul-09 05:33N 51°20' E 004°20'0 0.0
2014-Jul-09 04:33N 51°20' E 004°20'0 0.0
2014-Jul-09 03:33N 51°20' E 004°20'0 0.0
2014-Jul-09 02:33N 51°20' E 004°20'0 0.0
2014-Jul-09 01:33N 51°20' E 004°20'0 0.0
2014-Jul-09 00:33N 51°20' E 004°20'0 0.0
2014-Jul-08 23:34N 51°20' E 004°20'0 0.0
2014-Jul-08 22:33N 51°20' E 004°20'2 2.3
2014-Jul-08 21:34N 51°21' E 004°17'1 0.7
2014-Jul-08 20:34N 51°21' E 004°16'8 8.1
2014-Jul-08 19:34N 51°22' E 004°03'8 7.9
2014-Jul-08 18:33N 51°21' E 003°51'1111.3
2014-Jul-08 17:33N 51°25' E 003°35'1514.9
2014-Jul-08 16:33N 51°24' E 003°11'10 9.5
2014-Jul-08 15:32N 51°34' E 003°09'1313.6
2014-Jul-08 14:33N 51°47' E 003°13'4 3.8
2014-Jul-08 13:33N 51°51' E 003°15'5 4.7
2014-Jul-08 12:33N 51°55' E 003°18'6 5.8
2014-Jul-08 11:29N 52°00' E 003°23'15 8.0
2014-Jul-08 09:33N 52°15' E 003°32'8 8.2
2014-Jul-08 08:32N 52°23' E 003°35'11 9.0
2014-Jul-08 07:19N 52°34' E 003°37'1810.2
2014-Jul-08 05:33N 52°50' E 003°50'2512.0
2014-Jul-08 03:29N 53°08' E 004°19'1210.8
2014-Jul-08 02:25N 53°17' E 004°30'910.7
2014-Jul-08 01:34N 53°26' E 004°35'1110.6
2014-Jul-08 00:33N 53°36' E 004°39'1110.8
2014-Jul-07 23:33N 53°46' E 004°46'1111.3
2014-Jul-07 22:33N 53°57' E 004°53'1211.6
2014-Jul-07 21:33N 54°08' E 004°59'1211.6
2014-Jul-07 20:32N 54°19' E 005°05'1411.6
2014-Jul-07 19:21N 54°32' E 005°14'911.6
2014-Jul-07 18:33N 54°41' E 005°19'1211.6
2014-Jul-07 17:33N 54°52' E 005°26'23313.4
2014-Jul-07 00:11N 57°48' E 009°59'1015.1
2014-Jul-06 23:33N 57°48' E 010°17'1514.7
2014-Jul-06 22:33N 57°48' E 010°45'1615.9
2014-Jul-06 21:34N 57°38' E 011°08'1615.8
2014-Jul-06 20:34N 57°26' E 011°27'1615.9
2014-Jul-06 19:33N 57°11' E 011°37'1616.4
2014-Jul-06 18:34N 56°55' E 011°47'1313.0
2014-Jul-06 17:33N 56°42' E 011°47'12714.0
2014-Jul-06 08:31N 54°40' E 010°50'1515.8
2014-Jul-06 07:33N 54°35' E 011°15'1616.3
2014-Jul-06 06:33N 54°28' E 011°40'1615.8
2014-Jul-06 05:33N 54°26' E 012°07'1414.4
2014-Jul-06 04:33N 54°37' E 012°21'1615.8
2014-Jul-06 03:33N 54°46' E 012°44'1615.6
2014-Jul-06 02:33N 54°53' E 013°08'1615.5
2014-Jul-06 01:33N 54°58' E 013°34'1615.7
2014-Jul-06 00:33N 55°03' E 013°60'1615.8
2014-Jul-05 23:33N 55°15' E 014°19'1615.6
2014-Jul-05 22:33N 55°26' E 014°37'1515.5
2014-Jul-05 21:33N 55°32' E 015°02'  

Dump ship's entire track history